Time;durP1;ratioP1;P1;durP2;ratioP2;P2;SDS_P1;SDS_P2;PMS_P1;PMS_P2;Temp;Humidity;BMP_temperature;BMP_pressure;BME280_temperature;BME280_humidity;BME280_pressure;Samples;Min_cycle;Max_cycle;Signal;HPM_P1;HPM_P2
2023/12/11 00:00:46;;;;;;;20.40;3.70;;;10.70;99.90;;;;;;5060298;28;20028;-37
2023/12/11 00:03:12;;;;;;;18.58;4.40;;;10.70;99.90;;;;;;5059861;28;20025;-37
2023/12/11 00:05:41;;;;;;;18.70;3.63;;;10.70;99.90;;;;;;5061659;28;20475;-35
2023/12/11 00:08:07;;;;;;;13.00;3.20;;;10.70;99.90;;;;;;5061651;28;20036;-34
2023/12/11 00:10:33;;;;;;;15.02;4.05;;;10.60;99.90;;;;;;5059619;28;20020;-36
2023/12/11 00:13:02;;;;;;;18.23;3.70;;;10.60;99.90;;;;;;5059518;28;20032;-34
2023/12/11 00:15:28;;;;;;;14.55;3.33;;;10.60;99.90;;;;;;5060235;28;20048;-37
2023/12/11 00:17:54;;;;;;;11.02;2.83;;;10.60;99.90;;;;;;5059148;28;20029;-35
2023/12/11 00:20:19;;;;;;;10.98;3.13;;;10.60;99.90;;;;;;5060328;28;20506;-35
2023/12/11 00:22:45;;;;;;;11.52;2.63;;;10.60;99.90;;;;;;5059820;28;20033;-36
2023/12/11 00:25:11;;;;;;;9.77;2.50;;;10.60;99.90;;;;;;5059143;28;20107;-36
2023/12/11 00:27:36;;;;;;;14.60;3.25;;;10.60;99.90;;;;;;5060233;28;20716;-36
2023/12/11 00:30:02;;;;;;;13.73;3.33;;;10.50;99.90;;;;;;5059388;28;20024;-38
2023/12/11 00:32:28;;;;;;;13.75;3.20;;;10.50;99.90;;;;;;5059822;28;20021;-36
2023/12/11 00:34:54;;;;;;;14.43;2.80;;;10.50;99.90;;;;;;5059268;28;20037;-37
2023/12/11 00:37:19;;;;;;;13.40;2.92;;;10.50;99.90;;;;;;5060050;28;20432;-38
2023/12/11 00:39:45;;;;;;;12.93;2.90;;;10.50;99.90;;;;;;5059788;28;20094;-37
2023/12/11 00:42:11;;;;;;;11.30;2.38;;;10.50;99.90;;;;;;5060172;28;20327;-37
2023/12/11 00:44:37;;;;;;;13.32;2.95;;;10.50;99.90;;;;;;5059884;28;20433;-35
2023/12/11 00:47:04;;;;;;;10.68;2.67;;;10.50;99.90;;;;;;5059194;28;20105;-36
2023/12/11 00:49:31;;;;;;;8.85;2.42;;;10.40;99.90;;;;;;5060424;28;20073;-36
2023/12/11 00:51:56;;;;;;;10.48;3.28;;;10.40;99.90;;;;;;5058535;28;20037;-36
2023/12/11 00:54:22;;;;;;;19.48;3.28;;;10.40;99.90;;;;;;5060293;28;20040;-36
2023/12/11 00:56:48;;;;;;;13.90;2.80;;;10.30;99.90;;;;;;5060559;28;20439;-36
2023/12/11 00:59:16;;;;;;;13.05;2.95;;;10.30;99.90;;;;;;5060030;28;20028;-36
2023/12/11 01:01:42;;;;;;;12.40;2.97;;;10.30;99.90;;;;;;5060461;28;20111;-36
2023/12/11 01:04:08;;;;;;;14.98;4.03;;;10.30;99.90;;;;;;5060254;28;20433;-36
2023/12/11 01:06:34;;;;;;;14.45;3.72;;;10.30;99.90;;;;;;5061897;28;20035;-36
2023/12/11 01:09:00;;;;;;;16.70;3.70;;;10.30;99.90;;;;;;5063760;28;20028;-36
2023/12/11 01:11:25;;;;;;;13.32;3.08;;;10.30;99.90;;;;;;5063967;28;20471;-36
2023/12/11 01:13:51;;;;;;;19.73;3.70;;;10.30;99.90;;;;;;5061713;28;20560;-36
2023/12/11 01:16:17;;;;;;;16.27;3.33;;;10.30;99.90;;;;;;5063561;28;20779;-35
2023/12/11 01:18:42;;;;;;;20.17;4.15;;;10.30;99.90;;;;;;5063534;28;20029;-36
2023/12/11 01:21:08;;;;;;;17.30;3.72;;;10.30;99.90;;;;;;5063186;28;20289;-36
2023/12/11 01:23:34;;;;;;;12.75;3.60;;;10.40;99.90;;;;;;5063772;28;20071;-37
2023/12/11 01:26:03;;;;;;;14.27;3.30;;;10.40;99.90;;;;;;5063942;28;20387;-36
2023/12/11 01:28:31;;;;;;;16.90;3.80;;;10.40;99.90;;;;;;5062739;28;20387;-35
2023/12/11 01:30:57;;;;;;;17.17;3.25;;;10.50;99.90;;;;;;5062648;28;20044;-36
2023/12/11 01:33:22;;;;;;;16.83;3.55;;;10.50;99.90;;;;;;5063367;28;20535;-35
2023/12/11 01:35:48;;;;;;;15.82;3.90;;;10.50;99.90;;;;;;5061924;28;20036;-36
2023/12/11 01:38:14;;;;;;;13.80;3.30;;;10.50;99.90;;;;;;5062959;28;20025;-35
2023/12/11 01:40:39;;;;;;;15.73;3.17;;;10.50;99.90;;;;;;5062570;28;20108;-37
2023/12/11 01:43:14;;;;;;;15.60;3.25;;;10.50;99.90;;;;;;5062374;28;20021;-36
2023/12/11 01:45:43;;;;;;;14.50;3.10;;;10.50;99.90;;;;;;5062327;28;20697;-36
2023/12/11 01:48:11;;;;;;;17.55;3.15;;;10.50;99.90;;;;;;5062010;28;20033;-36
2023/12/11 01:50:38;;;;;;;10.85;2.72;;;10.50;99.90;;;;;;5062756;28;20064;-36
2023/12/11 01:53:04;;;;;;;10.88;2.83;;;10.50;99.90;;;;;;5062484;28;20613;-36
2023/12/11 01:55:31;;;;;;;16.23;3.67;;;10.50;99.90;;;;;;5063203;28;20135;-36
2023/12/11 01:57:58;;;;;;;14.98;3.22;;;10.50;99.90;;;;;;5062266;28;20060;-37
2023/12/11 02:00:24;;;;;;;17.20;3.28;;;10.50;99.90;;;;;;5062350;28;20418;-36
2023/12/11 02:02:50;;;;;;;11.45;3.17;;;10.50;99.90;;;;;;5061212;28;20069;-37
2023/12/11 02:05:17;;;;;;;16.17;2.95;;;10.50;99.90;;;;;;5062586;28;20020;-35
2023/12/11 02:07:43;;;;;;;17.70;3.20;;;10.60;99.90;;;;;;5062424;28;20029;-36
2023/12/11 02:10:09;;;;;;;16.50;4.22;;;10.60;99.90;;;;;;5061838;28;20063;-36
2023/12/11 02:12:35;;;;;;;14.13;2.92;;;10.60;99.90;;;;;;5062332;28;20563;-36
2023/12/11 02:15:00;;;;;;;10.95;3.10;;;10.60;99.90;;;;;;5061952;28;20040;-35
2023/12/11 02:17:26;;;;;;;11.80;2.75;;;10.60;99.90;;;;;;5062380;28;20024;-37
2023/12/11 02:19:52;;;;;;;17.00;3.17;;;10.60;99.90;;;;;;5061871;28;20035;-36
2023/12/11 02:22:18;;;;;;;13.20;3.08;;;10.60;99.90;;;;;;5062573;28;20024;-37
2023/12/11 02:24:49;;;;;;;15.57;3.78;;;10.60;99.90;;;;;;5061570;28;20032;-36
2023/12/11 02:27:15;;;;;;;21.25;4.25;;;10.60;99.90;;;;;;5062615;28;20033;-36
2023/12/11 02:29:40;;;;;;;15.95;3.70;;;10.60;99.90;;;;;;5062007;28;20028;-37
2023/12/11 02:32:06;;;;;;;18.05;3.40;;;10.60;99.90;;;;;;5061700;28;20141;-38
2023/12/11 02:34:32;;;;;;;14.88;3.53;;;10.60;99.90;;;;;;5060418;28;20043;-37
2023/12/11 02:36:58;;;;;;;17.33;3.05;;;10.70;99.90;;;;;;5059937;28;20334;-37
2023/12/11 02:39:23;;;;;;;15.45;3.20;;;10.60;99.90;;;;;;5061237;28;20521;-37
2023/12/11 02:41:49;;;;;;;15.35;3.10;;;10.60;99.90;;;;;;5061440;28;20539;-38
2023/12/11 02:44:14;;;;;;;16.60;2.85;;;10.60;99.90;;;;;;5060875;28;20098;-37
2023/12/11 02:46:40;;;;;;;10.48;2.80;;;10.70;99.90;;;;;;5062784;28;20086;-37
2023/12/11 02:49:06;;;;;;;18.70;3.85;;;10.70;99.90;;;;;;5078140;28;20943;-37
2023/12/11 02:51:32;;;;;;;15.20;3.28;;;10.70;99.90;;;;;;5061164;28;20050;-37
2023/12/11 02:53:57;;;;;;;11.57;3.15;;;10.70;99.90;;;;;;5061205;28;20351;-36
2023/12/11 02:56:23;;;;;;;14.40;3.00;;;10.70;99.90;;;;;;5062059;28;20490;-36
2023/12/11 02:58:48;;;;;;;12.57;2.97;;;10.70;99.90;;;;;;5060692;28;20032;-36
2023/12/11 03:01:15;;;;;;;15.38;2.85;;;10.70;99.90;;;;;;5060953;28;20026;-38
2023/12/11 03:03:41;;;;;;;11.95;3.25;;;10.70;99.90;;;;;;5061527;28;20043;-37
2023/12/11 03:06:08;;;;;;;13.93;2.90;;;10.70;99.90;;;;;;5060710;28;20688;-37
2023/12/11 03:08:36;;;;;;;19.98;3.40;;;10.60;99.90;;;;;;5061777;28;20025;-37
2023/12/11 03:11:02;;;;;;;13.73;2.97;;;10.60;99.90;;;;;;5060563;28;20225;-37
2023/12/11 03:13:28;;;;;;;20.02;4.53;;;10.60;99.90;;;;;;5060125;28;20562;-37
2023/12/11 03:15:53;;;;;;;13.38;2.58;;;10.50;99.90;;;;;;5060906;28;20024;-36
2023/12/11 03:18:19;;;;;;;12.55;2.75;;;10.50;99.90;;;;;;5061784;28;20020;-36
2023/12/11 03:20:44;;;;;;;12.73;2.90;;;10.50;99.90;;;;;;5060992;28;20031;-36
2023/12/11 03:23:10;;;;;;;19.75;3.88;;;10.50;99.90;;;;;;5062028;28;20895;-36
2023/12/11 03:25:36;;;;;;;13.35;3.40;;;10.40;99.90;;;;;;5062000;28;20391;-36
2023/12/11 03:28:02;;;;;;;14.65;3.20;;;10.40;99.90;;;;;;5059817;28;20029;-36
2023/12/11 03:30:27;;;;;;;15.68;2.83;;;10.30;99.90;;;;;;5061081;28;20135;-35
2023/12/11 03:32:53;;;;;;;14.38;3.03;;;10.20;99.90;;;;;;5061268;28;20061;-36
2023/12/11 03:35:19;;;;;;;14.80;2.70;;;10.20;99.90;;;;;;5061520;28;20119;-38
2023/12/11 03:37:44;;;;;;;14.93;3.08;;;10.10;99.90;;;;;;5060430;28;20043;-35
2023/12/11 03:40:10;;;;;;;13.35;2.95;;;10.10;99.90;;;;;;5060578;28;20558;-36
2023/12/11 03:42:36;;;;;;;13.38;3.10;;;10.10;99.90;;;;;;5060462;28;20190;-35
2023/12/11 03:45:02;;;;;;;15.35;3.30;;;10.10;99.90;;;;;;5060911;28;20716;-36
2023/12/11 03:47:28;;;;;;;16.90;2.80;;;10.10;99.90;;;;;;5059569;28;20094;-36
2023/12/11 03:49:54;;;;;;;15.32;3.05;;;10.10;99.90;;;;;;5068493;28;20063;-36
2023/12/11 03:52:22;;;;;;;15.27;3.00;;;10.10;99.90;;;;;;5068819;28;20129;-36
2023/12/11 03:54:48;;;;;;;17.20;3.35;;;10.10;99.90;;;;;;5059813;28;20033;-37
2023/12/11 03:57:16;;;;;;;11.75;2.72;;;10.10;99.90;;;;;;5060632;28;20021;-37
2023/12/11 03:59:42;;;;;;;13.02;2.47;;;10.10;99.90;;;;;;5060595;28;20383;-37
2023/12/11 04:02:10;;;;;;;11.52;2.63;;;10.10;99.90;;;;;;5058569;28;20033;-37
2023/12/11 04:04:36;;;;;;;10.68;2.50;;;10.10;99.90;;;;;;5060591;28;20144;-37
2023/12/11 04:07:02;;;;;;;13.65;2.85;;;10.20;99.90;;;;;;5059876;28;20711;-37
2023/12/11 04:09:27;;;;;;;13.80;2.17;;;10.10;99.90;;;;;;5059967;28;20075;-36
2023/12/11 04:11:53;;;;;;;10.35;3.03;;;10.20;99.90;;;;;;5060163;28;20024;-36
2023/12/11 04:14:19;;;;;;;9.27;2.15;;;10.20;99.90;;;;;;5060332;28;20036;-36
2023/12/11 04:16:44;;;;;;;10.05;2.35;;;10.20;99.90;;;;;;5059799;28;20082;-37
2023/12/11 04:19:11;;;;;;;11.85;2.20;;;10.20;99.90;;;;;;5060054;28;20031;-36
2023/12/11 04:21:37;;;;;;;9.40;2.03;;;10.30;99.90;;;;;;5061193;28;20024;-37
2023/12/11 04:24:03;;;;;;;13.38;2.15;;;10.30;99.90;;;;;;5059186;28;20079;-37
2023/12/11 04:26:29;;;;;;;12.80;2.60;;;10.40;99.90;;;;;;5060898;28;20052;-37
2023/12/11 04:28:55;;;;;;;11.15;2.13;;;10.40;99.90;;;;;;5059827;28;20064;-37
2023/12/11 04:31:24;;;;;;;14.48;2.80;;;10.40;99.90;;;;;;5059523;28;20028;-37
2023/12/11 04:33:50;;;;;;;10.93;2.70;;;10.40;99.90;;;;;;5059529;28;20063;-36
2023/12/11 04:36:19;;;;;;;9.57;2.60;;;10.40;99.90;;;;;;5060300;28;20037;-36
2023/12/11 04:38:44;;;;;;;10.13;2.42;;;10.40;99.90;;;;;;5059074;28;20023;-36
2023/12/11 04:41:10;;;;;;;19.15;3.72;;;10.40;99.90;;;;;;5060509;28;20032;-37
2023/12/11 04:43:36;;;;;;;11.85;2.97;;;10.40;99.90;;;;;;5059544;28;20055;-35
2023/12/11 04:46:05;;;;;;;15.27;3.00;;;10.40;99.90;;;;;;5059940;28;20108;-36
2023/12/11 04:48:31;;;;;;;17.98;2.90;;;10.40;99.90;;;;;;5059698;28;20042;-35
2023/12/11 04:50:57;;;;;;;16.27;3.20;;;10.40;99.90;;;;;;5058751;28;20052;-36
2023/12/11 04:53:23;;;;;;;19.02;3.10;;;10.40;99.90;;;;;;5060724;28;20025;-36
2023/12/11 04:55:48;;;;;;;21.23;4.25;;;10.50;99.90;;;;;;5060445;28;20788;-37
2023/12/11 04:58:14;;;;;;;11.50;2.78;;;10.40;99.90;;;;;;5060004;28;20108;-36
2023/12/11 05:00:40;;;;;;;15.02;2.88;;;10.50;99.90;;;;;;5060060;28;20056;-36
2023/12/11 05:03:05;;;;;;;11.40;2.80;;;10.50;99.90;;;;;;5060341;28;20032;-36
2023/12/11 05:05:31;;;;;;;15.88;3.70;;;10.50;99.90;;;;;;5059556;28;20035;-37
2023/12/11 05:07:57;;;;;;;15.95;3.47;;;10.50;99.90;;;;;;5059218;28;20395;-36
2023/12/11 05:10:25;;;;;;;16.65;3.00;;;10.50;99.90;;;;;;5060066;28;20025;-36
2023/12/11 05:12:51;;;;;;;19.27;3.42;;;10.50;99.90;;;;;;5058784;28;20025;-36
2023/12/11 05:15:16;;;;;;;16.17;3.22;;;10.50;99.90;;;;;;5059180;28;20395;-36
2023/12/11 05:17:42;;;;;;;17.02;3.65;;;10.50;99.90;;;;;;5060242;28;20030;-35
2023/12/11 05:20:08;;;;;;;18.40;3.42;;;10.50;99.90;;;;;;5058647;28;20012;-36
2023/12/11 05:22:34;;;;;;;17.85;4.68;;;10.60;99.90;;;;;;5059778;28;20074;-36
2023/12/11 05:25:00;;;;;;;17.42;2.97;;;10.60;99.90;;;;;;5058771;28;20028;-37
2023/12/11 05:27:25;;;;;;;17.25;3.20;;;10.50;99.90;;;;;;5058970;28;20801;-35
2023/12/11 05:29:51;;;;;;;13.60;3.00;;;10.50;99.90;;;;;;5058650;28;20032;-36
2023/12/11 05:32:17;;;;;;;17.60;3.60;;;10.50;99.90;;;;;;5059417;28;20571;-35
2023/12/11 05:34:42;;;;;;;9.18;2.67;;;10.50;99.90;;;;;;5058774;28;20033;-36
2023/12/11 05:37:08;;;;;;;11.70;2.38;;;10.50;99.90;;;;;;5059712;28;20311;-35
2023/12/11 05:39:34;;;;;;;12.80;2.47;;;10.50;99.90;;;;;;5059328;28;20107;-35
2023/12/11 05:41:59;;;;;;;16.27;3.95;;;10.50;99.90;;;;;;5058453;28;20032;-36
2023/12/11 05:44:25;;;;;;;16.83;3.35;;;10.60;99.90;;;;;;5059989;28;20027;-36
2023/12/11 05:46:50;;;;;;;14.98;3.50;;;10.60;99.90;;;;;;5058443;28;20380;-36
2023/12/11 05:49:16;;;;;;;16.38;2.60;;;10.60;99.90;;;;;;5059665;28;20028;-36
2023/12/11 05:51:42;;;;;;;13.20;2.65;;;10.60;99.90;;;;;;5059711;28;20143;-36
2023/12/11 05:54:07;;;;;;;14.13;3.15;;;10.60;99.90;;;;;;5062010;28;20117;-36
2023/12/11 05:56:33;;;;;;;16.58;3.20;;;10.60;99.90;;;;;;5062237;28;20407;-36
2023/12/11 05:58:59;;;;;;;16.00;3.53;;;10.60;99.90;;;;;;5062162;28;20044;-35
2023/12/11 06:01:27;;;;;;;16.25;3.45;;;10.60;99.90;;;;;;5062576;28;20017;-36
2023/12/11 06:03:53;;;;;;;19.27;3.83;;;10.60;99.90;;;;;;5062437;28;20047;-35
2023/12/11 06:06:19;;;;;;;19.52;3.70;;;10.60;99.90;;;;;;5062740;28;20479;-35
2023/12/11 06:08:45;;;;;;;20.17;3.97;;;10.70;99.90;;;;;;5062278;28;20586;-36
2023/12/11 06:11:11;;;;;;;16.13;3.40;;;10.70;99.90;;;;;;5062779;28;20489;-37
2023/12/11 06:13:36;;;;;;;18.63;4.10;;;10.70;99.90;;;;;;5063122;28;20029;-37
2023/12/11 06:16:08;;;;;;;13.52;2.85;;;10.70;99.90;;;;;;5061867;28;20039;-36
2023/12/11 06:18:34;;;;;;;15.43;3.47;;;10.60;99.90;;;;;;5062782;28;20063;-36
2023/12/11 06:21:00;;;;;;;14.27;3.03;;;10.60;99.90;;;;;;5062320;28;20100;-36
2023/12/11 06:23:25;;;;;;;13.60;3.15;;;10.60;99.90;;;;;;5061486;28;20016;-36
2023/12/11 06:25:51;;;;;;;15.93;3.42;;;10.50;99.90;;;;;;5061707;28;20032;-36
2023/12/11 06:28:17;;;;;;;16.23;3.67;;;10.50;99.90;;;;;;5062111;28;20060;-35
2023/12/11 06:30:43;;;;;;;14.70;2.95;;;10.60;99.90;;;;;;5061912;28;20025;-35
2023/12/11 06:33:09;;;;;;;13.68;3.58;;;10.50;99.90;;;;;;5062188;28;20020;-36
2023/12/11 06:35:35;;;;;;;15.38;2.63;;;10.50;99.90;;;;;;5062466;28;20082;-37
2023/12/11 06:38:00;;;;;;;17.83;3.58;;;10.50;99.90;;;;;;5061474;28;20104;-36
2023/12/11 06:40:26;;;;;;;20.42;3.50;;;10.50;99.90;;;;;;5062507;28;20056;-36
2023/12/11 06:42:51;;;;;;;15.48;3.13;;;10.40;99.90;;;;;;5061065;28;20024;-36
2023/12/11 06:45:17;;;;;;;14.00;3.40;;;10.40;99.90;;;;;;5061473;28;20059;-40
2023/12/11 06:47:43;;;;;;;19.63;3.63;;;10.40;99.90;;;;;;5062162;28;20113;-36
2023/12/11 06:50:09;;;;;;;12.48;2.88;;;10.40;99.90;;;;;;5061849;28;20079;-36
2023/12/11 06:52:34;;;;;;;13.55;3.28;;;10.40;99.90;;;;;;5060992;28;20452;-35
2023/12/11 06:55:00;;;;;;;15.80;3.45;;;10.40;99.90;;;;;;5061288;28;20048;-34
2023/12/11 06:57:25;;;;;;;16.73;3.95;;;10.30;99.90;;;;;;5060888;28;20088;-35
2023/12/11 06:59:51;;;;;;;18.42;3.67;;;10.30;99.90;;;;;;5061811;28;20768;-35
2023/12/11 07:02:17;;;;;;;17.00;3.58;;;10.30;99.90;;;;;;5062670;28;20528;-35
2023/12/11 07:04:42;;;;;;;21.35;3.25;;;10.40;99.90;;;;;;5060495;28;20432;-42
2023/12/11 07:07:11;;;;;;;13.25;3.08;;;10.30;99.90;;;;;;5062293;28;20357;-36
2023/12/11 07:09:38;;;;;;;17.30;3.15;;;10.30;99.90;;;;;;5062036;28;20367;-36
2023/12/11 07:12:04;;;;;;;18.10;3.47;;;10.40;99.90;;;;;;5061546;28;20026;-37
2023/12/11 07:14:30;;;;;;;16.25;2.78;;;10.40;99.90;;;;;;5061440;28;20036;-37
2023/12/11 07:16:56;;;;;;;18.70;3.50;;;10.40;99.90;;;;;;5060890;28;20032;-37
2023/12/11 07:19:21;;;;;;;13.20;2.90;;;10.30;99.90;;;;;;5060199;28;20551;-36
2023/12/11 07:21:47;;;;;;;16.23;3.35;;;10.40;99.90;;;;;;5061257;28;20359;-35
2023/12/11 07:24:16;;;;;;;14.30;3.00;;;10.30;99.90;;;;;;5060582;28;20131;-35
2023/12/11 07:26:41;;;;;;;17.60;4.35;;;10.40;99.90;;;;;;5060265;28;20036;-36
2023/12/11 07:29:07;;;;;;;18.42;3.55;;;10.40;99.90;;;;;;5060704;28;20044;-35
2023/12/11 07:31:33;;;;;;;13.88;2.85;;;10.40;99.90;;;;;;5060759;28;20725;-35
2023/12/11 07:33:59;;;;;;;20.08;3.78;;;10.40;99.90;;;;;;5059813;28;20028;-35
2023/12/11 07:36:25;;;;;;;16.27;3.33;;;10.30;99.90;;;;;;5061532;28;20027;-36
2023/12/11 07:38:50;;;;;;;13.60;2.78;;;10.40;99.90;;;;;;5060790;28;20024;-36
2023/12/11 07:41:22;;;;;;;14.68;3.55;;;10.30;99.90;;;;;;5061022;28;20851;-37
2023/12/11 07:43:48;;;;;;;12.45;2.67;;;10.30;99.90;;;;;;5061290;28;20103;-36
2023/12/11 07:46:18;;;;;;;14.65;2.95;;;10.20;99.90;;;;;;5060513;28;20024;-36
2023/12/11 07:48:44;;;;;;;15.13;2.63;;;10.20;99.90;;;;;;5059895;28;20135;-37
2023/12/11 07:51:18;;;;;;;13.85;2.92;;;10.10;99.90;;;;;;5059684;28;20048;-36
2023/12/11 07:53:44;;;;;;;15.50;2.83;;;10.10;99.90;;;;;;5059295;28;20055;-37
2023/12/11 07:56:18;;;;;;;9.52;2.42;;;10.10;99.90;;;;;;5060553;28;20036;-39
2023/12/11 07:58:43;;;;;;;10.13;2.63;;;10.10;99.90;;;;;;5060575;28;20131;-35
2023/12/11 08:01:09;;;;;;;11.32;2.10;;;10.00;99.90;;;;;;5058754;28;20478;-36
2023/12/11 08:03:37;;;;;;;12.25;2.30;;;10.00;99.90;;;;;;5060415;28;20020;-36
2023/12/11 08:06:03;;;;;;;8.70;2.00;;;10.10;99.90;;;;;;5059639;28;20097;-36
2023/12/11 08:08:29;;;;;;;8.27;1.83;;;10.10;99.90;;;;;;5059638;28;20111;-36
2023/12/11 08:10:55;;;;;;;7.90;1.95;;;10.10;99.90;;;;;;5059548;28;20017;-36
2023/12/11 08:13:20;;;;;;;15.05;2.40;;;10.10;99.90;;;;;;5060686;28;20486;-36
2023/12/11 08:15:46;;;;;;;8.85;2.15;;;10.10;99.90;;;;;;5059037;28;20040;-37
2023/12/11 08:18:12;;;;;;;9.68;2.45;;;10.10;99.90;;;;;;5060560;28;20051;-37
2023/12/11 08:20:37;;;;;;;7.88;2.08;;;10.10;99.90;;;;;;5060493;28;20059;-36
2023/12/11 08:23:03;;;;;;;9.40;2.70;;;10.10;99.90;;;;;;5059492;28;20025;-36
2023/12/11 08:25:29;;;;;;;7.20;2.03;;;10.10;99.90;;;;;;5060159;28;20028;-36
2023/12/11 08:27:54;;;;;;;10.55;1.92;;;10.10;99.90;;;;;;5059506;28;20028;-36
2023/12/11 08:30:20;;;;;;;9.00;2.10;;;10.10;99.90;;;;;;5059993;28;20059;-36
2023/12/11 08:32:46;;;;;;;8.90;2.28;;;10.10;99.90;;;;;;5059977;28;20077;-38
2023/12/11 08:35:12;;;;;;;8.40;1.98;;;10.10;99.90;;;;;;5060119;28;20035;-36
2023/12/11 08:37:37;;;;;;;8.00;2.72;;;10.10;99.90;;;;;;5059480;28;20067;-35
2023/12/11 08:40:04;;;;;;;8.95;2.30;;;10.20;99.90;;;;;;5059562;28;20078;-36
2023/12/11 08:42:32;;;;;;;5.60;1.52;;;10.10;99.90;;;;;;5059498;28;20025;-36
2023/12/11 08:44:57;;;;;;;10.05;2.53;;;10.20;99.90;;;;;;5039292;28;20060;-37
2023/12/11 08:47:23;;;;;;;12.45;2.20;;;10.20;99.90;;;;;;5053714;28;20107;-37
2023/12/11 08:49:52;;;;;;;6.95;2.08;;;10.20;99.90;;;;;;5058168;28;20040;-37
2023/12/11 08:52:17;;;;;;;7.72;1.90;;;10.20;99.90;;;;;;5060102;28;20136;-36
2023/12/11 08:54:43;;;;;;;7.70;1.73;;;10.20;99.90;;;;;;5059176;28;20101;-36
2023/12/11 08:57:09;;;;;;;9.52;2.30;;;10.30;99.90;;;;;;5058866;28;20043;-37
2023/12/11 08:59:35;;;;;;;8.00;1.88;;;10.30;99.90;;;;;;5060479;28;20024;-37
2023/12/11 09:02:01;;;;;;;10.57;2.20;;;10.30;99.90;;;;;;5058717;28;20017;-36
2023/12/11 09:04:26;;;;;;;10.10;2.35;;;10.30;99.90;;;;;;5059560;28;20116;-36
2023/12/11 09:06:58;;;;;;;8.98;2.33;;;10.40;99.90;;;;;;5059943;28;20028;-36
2023/12/11 09:09:24;;;;;;;10.20;2.20;;;10.40;99.90;;;;;;5059927;28;20413;-37
2023/12/11 09:11:49;;;;;;;8.60;2.60;;;10.40;99.90;;;;;;5058873;28;20187;-37
2023/12/11 09:14:15;;;;;;;8.30;2.28;;;10.40;99.90;;;;;;5059459;28;20712;-36
2023/12/11 09:16:41;;;;;;;8.57;1.73;;;10.50;99.90;;;;;;5059464;28;20040;-37
2023/12/11 09:19:08;;;;;;;6.15;1.70;;;10.50;99.90;;;;;;5058083;28;20017;-37
2023/12/11 09:21:34;;;;;;;6.20;1.55;;;10.60;99.90;;;;;;5060006;28;20473;-37
2023/12/11 09:23:59;;;;;;;5.28;1.42;;;10.60;99.90;;;;;;5058410;28;20558;-37
2023/12/11 09:26:28;;;;;;;4.68;1.67;;;10.60;99.90;;;;;;5060317;28;20032;-36
2023/12/11 09:28:53;;;;;;;5.80;1.80;;;10.70;99.90;;;;;;5063305;28;20025;-37
2023/12/11 09:31:19;;;;;;;5.07;1.52;;;10.80;99.90;;;;;;5063799;28;20433;-37
2023/12/11 09:33:45;;;;;;;10.13;1.90;;;10.70;99.90;;;;;;5062772;28;20668;-36
2023/12/11 09:36:11;;;;;;;8.52;2.38;;;10.80;99.90;;;;;;5063634;28;20036;-36
2023/12/11 09:38:37;;;;;;;8.48;1.60;;;10.80;99.90;;;;;;5063290;28;20027;-37
2023/12/11 09:41:04;;;;;;;6.30;1.67;;;10.80;99.90;;;;;;5063211;28;20074;-36
2023/12/11 09:43:29;;;;;;;6.38;1.60;;;10.80;99.90;;;;;;5062745;28;20037;-37
2023/12/11 09:45:56;;;;;;;6.07;1.63;;;10.80;99.90;;;;;;5062689;28;20028;-37
2023/12/11 09:48:22;;;;;;;7.22;2.03;;;10.80;99.90;;;;;;5063242;28;20126;-37
2023/12/11 09:50:48;;;;;;;5.75;2.05;;;10.80;99.90;;;;;;5062400;28;20618;-36
2023/12/11 09:53:14;;;;;;;8.00;2.00;;;10.80;99.90;;;;;;5062115;28;20112;-37
2023/12/11 09:55:40;;;;;;;8.65;1.77;;;10.90;99.90;;;;;;5062276;28;20161;-36
2023/12/11 09:58:06;;;;;;;7.88;2.20;;;10.80;99.90;;;;;;5062811;28;20027;-37
2023/12/11 10:00:32;;;;;;;11.00;2.22;;;10.90;99.90;;;;;;5061725;28;20486;-37
2023/12/11 10:03:00;;;;;;;7.70;1.80;;;10.90;99.90;;;;;;5062110;28;20371;-37
2023/12/11 10:05:26;;;;;;;5.05;1.65;;;10.90;99.90;;;;;;5062535;28;20032;-36
2023/12/11 10:07:55;;;;;;;4.65;1.58;;;10.90;99.90;;;;;;5062410;28;20024;-36
2023/12/11 10:10:22;;;;;;;7.43;1.95;;;10.90;99.90;;;;;;5064210;28;20032;-36
2023/12/11 10:12:48;;;;;;;9.80;2.10;;;10.90;99.90;;;;;;5062489;28;20070;-37
2023/12/11 10:15:27;;;;;;;11.93;2.60;;;10.90;99.90;;;;;;5062432;28;20528;-37
2023/12/11 10:18:13;;;;;;;7.07;2.00;;;10.90;99.90;;;;;;5062586;28;20031;-35
2023/12/11 10:20:41;;;;;;;7.47;2.10;;;10.80;99.90;;;;;;5061363;28;20890;-37
2023/12/11 10:23:12;;;;;;;5.72;2.72;;;10.80;99.90;;;;;;5061544;28;20526;-35
2023/12/11 10:25:42;;;;;;;8.25;2.05;;;10.80;99.90;;;;;;5062557;28;20490;-36
2023/12/11 10:28:12;;;;;;;8.38;2.33;;;10.80;99.90;;;;;;5062394;28;20082;-36
2023/12/11 10:30:51;;;;;;;12.98;2.45;;;10.80;99.90;;;;;;5062232;28;20035;-35
2023/12/11 10:33:20;;;;;;;9.80;2.72;;;10.80;99.90;;;;;;5062326;28;20201;-36
2023/12/11 10:35:46;;;;;;;8.38;2.10;;;10.70;99.90;;;;;;5061144;28;20033;-36
2023/12/11 10:38:32;;;;;;;10.13;2.30;;;10.70;99.90;;;;;;5061943;28;20761;-36
2023/12/11 10:40:58;;;;;;;6.53;2.40;;;10.70;99.90;;;;;;5060953;28;20040;-35
2023/12/11 10:43:24;;;;;;;7.90;2.40;;;10.70;99.90;;;;;;5061784;28;20047;-37
2023/12/11 10:45:49;;;;;;;9.13;2.50;;;10.70;99.90;;;;;;5061026;28;20107;-37
2023/12/11 10:48:16;;;;;;;8.95;2.40;;;10.80;99.90;;;;;;5062365;28;20022;-36
2023/12/11 10:50:43;;;;;;;9.20;2.50;;;10.80;99.90;;;;;;5060578;28;20048;-37
2023/12/11 10:53:08;;;;;;;14.95;3.08;;;10.80;99.90;;;;;;5061727;28;20779;-36
2023/12/11 10:55:36;;;;;;;7.53;2.85;;;10.80;99.90;;;;;;5061551;28;20123;-36
2023/12/11 10:58:08;;;;;;;10.82;2.88;;;10.80;99.90;;;;;;5058783;28;20025;-36
2023/12/11 11:00:36;;;;;;;10.45;2.63;;;10.80;99.90;;;;;;5062067;28;20475;-36
2023/12/11 11:03:08;;;;;;;9.52;2.33;;;10.80;99.90;;;;;;5061267;28;20107;-41
2023/12/11 11:05:34;;;;;;;13.57;2.90;;;10.80;99.90;;;;;;5061146;28;20841;-37
2023/12/11 11:08:45;;;;;;;9.95;2.63;;;10.80;99.90;;;;;;5060855;28;20024;-37
2023/12/11 11:11:27;;;;;;;12.85;2.50;;;10.80;99.90;;;;;;5060810;28;20435;-37
2023/12/11 11:14:29;;;;;;;12.27;2.60;;;10.90;99.90;;;;;;5052629;28;20040;-37
2023/12/11 11:16:57;;;;;;;7.35;2.25;;;10.90;99.90;;;;;;5061122;28;20098;-37
2023/12/11 11:19:24;;;;;;;8.85;3.15;;;10.80;99.90;;;;;;5061599;28;20082;-37
2023/12/11 11:22:03;;;;;;;6.50;2.08;;;10.80;99.90;;;;;;5060893;28;20036;-42
2023/12/11 11:24:37;;;;;;;7.40;2.03;;;10.70;99.90;;;;;;5061647;28;20032;-49
2023/12/11 11:27:23;;;;;;;5.65;1.50;;;10.70;99.90;;;;;;5060915;28;20024;-37
2023/12/11 11:29:49;;;;;;;8.75;1.95;;;10.70;99.90;;;;;;5060745;28;20379;-38
2023/12/11 11:32:15;;;;;;;8.10;1.98;;;10.70;99.90;;;;;;5060662;28;20456;-36
2023/12/11 11:34:40;;;;;;;5.05;1.90;;;10.60;99.90;;;;;;5060775;28;20838;-37
2023/12/11 11:37:15;;;;;;;10.05;1.95;;;10.60;99.90;;;;;;5060939;28;20056;-36
2023/12/11 11:40:05;;;;;;;8.38;2.05;;;10.50;99.90;;;;;;5059958;28;20696;-36
2023/12/11 11:42:33;;;;;;;5.30;1.65;;;10.50;99.90;;;;;;5055144;28;20109;-37
2023/12/11 11:45:01;;;;;;;10.68;2.60;;;10.50;99.90;;;;;;5060599;28;20355;-37
2023/12/11 11:47:28;;;;;;;5.68;1.55;;;10.60;99.90;;;;;;5059827;28;20021;-36
2023/12/11 11:50:02;;;;;;;7.60;2.15;;;10.70;99.90;;;;;;5059435;28;20391;-37
2023/12/11 11:52:28;;;;;;;7.28;1.77;;;10.80;99.90;;;;;;5061157;28;20186;-37
2023/12/11 11:55:08;;;;;;;9.80;1.88;;;10.80;99.90;;;;;;5060038;28;20511;-37
2023/12/11 11:57:35;;;;;;;8.00;1.75;;;10.80;99.90;;;;;;5060594;28;20463;-36
2023/12/11 12:00:01;;;;;;;9.88;1.70;;;10.90;99.90;;;;;;5059295;28;20139;-36
2023/12/11 12:02:27;;;;;;;7.05;1.92;;;10.90;99.90;;;;;;5060572;28;20139;-36
2023/12/11 12:04:53;;;;;;;5.10;1.88;;;10.90;99.90;;;;;;5060051;28;20123;-36
2023/12/11 12:07:19;;;;;;;6.60;1.60;;;10.90;99.90;;;;;;5060456;28;20025;-37
2023/12/11 12:09:50;;;;;;;7.25;1.80;;;10.90;99.90;;;;;;5060264;28;20546;-36
2023/12/11 12:12:16;;;;;;;6.07;1.52;;;10.80;99.90;;;;;;5061204;28;20500;-37
2023/12/11 12:14:45;;;;;;;7.63;1.65;;;10.80;99.90;;;;;;5059310;28;20144;-35
2023/12/11 12:17:11;;;;;;;6.72;2.10;;;10.80;99.90;;;;;;5061128;28;20031;-37
2023/12/11 12:19:37;;;;;;;7.35;2.13;;;10.80;99.90;;;;;;5060809;28;20538;-36
2023/12/11 12:22:03;;;;;;;7.22;2.10;;;10.80;99.90;;;;;;5059068;28;20166;-36
2023/12/11 12:24:30;;;;;;;5.28;1.50;;;10.90;99.90;;;;;;5060050;28;20017;-37
2023/12/11 12:27:03;;;;;;;6.60;1.80;;;10.90;99.90;;;;;;5060390;28;20032;-37
2023/12/11 12:29:31;;;;;;;5.32;1.75;;;10.90;99.90;;;;;;5059668;28;20123;-36
2023/12/11 12:32:00;;;;;;;5.90;1.98;;;11.00;99.90;;;;;;5059968;28;20170;-36
2023/12/11 12:34:27;;;;;;;4.53;1.50;;;11.00;99.90;;;;;;5060082;28;20021;-37
2023/12/11 12:36:58;;;;;;;5.32;1.77;;;10.90;99.90;;;;;;5059178;28;20044;-36
2023/12/11 12:39:24;;;;;;;6.55;1.75;;;10.90;99.90;;;;;;5059923;28;20021;-37